sensor_id;sensor_type;location;lat;lon;timestamp;P1;durP1;ratioP1;P2;durP2;ratioP2
16804;SDS011;8520;50.102;20.010;2023-11-19T00:00:21;37.03;;;34.40;;
16804;SDS011;8520;50.102;20.010;2023-11-19T00:02:50;39.53;;;36.53;;
16804;SDS011;8520;50.102;20.010;2023-11-19T00:05:18;40.17;;;37.20;;
16804;SDS011;8520;50.102;20.010;2023-11-19T00:07:47;39.67;;;36.67;;
16804;SDS011;8520;50.102;20.010;2023-11-19T00:10:15;39.50;;;36.60;;
16804;SDS011;8520;50.102;20.010;2023-11-19T00:12:46;38.90;;;36.20;;
16804;SDS011;8520;50.102;20.010;2023-11-19T00:15:14;38.63;;;36.13;;
16804;SDS011;8520;50.102;20.010;2023-11-19T00:17:42;39.33;;;36.43;;
16804;SDS011;8520;50.102;20.010;2023-11-19T00:20:12;40.20;;;37.23;;
16804;SDS011;8520;50.102;20.010;2023-11-19T00:22:41;38.63;;;35.87;;
16804;SDS011;8520;50.102;20.010;2023-11-19T00:25:13;38.53;;;35.70;;
16804;SDS011;8520;50.102;20.010;2023-11-19T00:27:41;39.13;;;36.33;;
16804;SDS011;8520;50.102;20.010;2023-11-19T00:30:11;38.90;;;36.10;;
16804;SDS011;8520;50.102;20.010;2023-11-19T00:32:40;39.27;;;36.33;;
16804;SDS011;8520;50.102;20.010;2023-11-19T00:35:08;37.00;;;34.40;;
16804;SDS011;8520;50.102;20.010;2023-11-19T00:37:37;36.73;;;34.13;;
16804;SDS011;8520;50.102;20.010;2023-11-19T00:40:07;38.07;;;35.33;;
16804;SDS011;8520;50.102;20.010;2023-11-19T00:42:39;36.03;;;33.53;;
16804;SDS011;8520;50.102;20.010;2023-11-19T00:45:07;35.67;;;33.03;;
16804;SDS011;8520;50.102;20.010;2023-11-19T00:47:38;35.93;;;33.33;;
16804;SDS011;8520;50.102;20.010;2023-11-19T00:50:06;35.70;;;33.10;;
16804;SDS011;8520;50.102;20.010;2023-11-19T00:52:36;35.83;;;33.27;;
16804;SDS011;8520;50.102;20.010;2023-11-19T00:55:05;35.30;;;32.73;;
16804;SDS011;8520;50.102;20.010;2023-11-19T00:57:34;35.83;;;33.23;;
16804;SDS011;8520;50.102;20.010;2023-11-19T01:00:04;36.80;;;34.00;;
16804;SDS011;8520;50.102;20.010;2023-11-19T01:02:36;36.53;;;33.97;;
16804;SDS011;8520;50.102;20.010;2023-11-19T01:05:04;35.37;;;32.97;;
16804;SDS011;8520;50.102;20.010;2023-11-19T01:07:32;35.13;;;32.73;;
16804;SDS011;8520;50.102;20.010;2023-11-19T01:10:01;35.60;;;33.00;;
16804;SDS011;8520;50.102;20.010;2023-11-19T01:12:29;36.53;;;33.70;;
16804;SDS011;8520;50.102;20.010;2023-11-19T01:14:57;36.00;;;33.40;;
16804;SDS011;8520;50.102;20.010;2023-11-19T01:17:27;34.70;;;32.40;;
16804;SDS011;8520;50.102;20.010;2023-11-19T01:19:56;36.17;;;33.77;;
16804;SDS011;8520;50.102;20.010;2023-11-19T01:22:24;37.43;;;34.73;;
16804;SDS011;8520;50.102;20.010;2023-11-19T01:24:52;36.13;;;33.63;;
16804;SDS011;8520;50.102;20.010;2023-11-19T01:27:21;35.70;;;33.23;;
16804;SDS011;8520;50.102;20.010;2023-11-19T01:29:50;35.53;;;32.93;;
16804;SDS011;8520;50.102;20.010;2023-11-19T01:32:18;35.37;;;32.87;;
16804;SDS011;8520;50.102;20.010;2023-11-19T01:34:47;36.43;;;33.93;;
16804;SDS011;8520;50.102;20.010;2023-11-19T01:37:15;35.43;;;32.90;;
16804;SDS011;8520;50.102;20.010;2023-11-19T01:39:43;35.87;;;33.37;;
16804;SDS011;8520;50.102;20.010;2023-11-19T01:42:24;35.87;;;33.37;;
16804;SDS011;8520;50.102;20.010;2023-11-19T01:44:59;35.53;;;32.97;;
16804;SDS011;8520;50.102;20.010;2023-11-19T01:47:27;35.23;;;32.73;;
16804;SDS011;8520;50.102;20.010;2023-11-19T01:49:57;36.27;;;33.57;;
16804;SDS011;8520;50.102;20.010;2023-11-19T01:52:26;37.37;;;34.60;;
16804;SDS011;8520;50.102;20.010;2023-11-19T01:54:54;36.57;;;33.93;;
16804;SDS011;8520;50.102;20.010;2023-11-19T01:57:22;35.80;;;33.23;;
16804;SDS011;8520;50.102;20.010;2023-11-19T01:59:50;36.40;;;33.73;;
16804;SDS011;8520;50.102;20.010;2023-11-19T02:02:20;33.60;;;31.37;;
16804;SDS011;8520;50.102;20.010;2023-11-19T02:04:49;34.47;;;31.87;;
16804;SDS011;8520;50.102;20.010;2023-11-19T02:07:19;34.67;;;32.17;;
16804;SDS011;8520;50.102;20.010;2023-11-19T02:09:47;33.70;;;31.30;;
16804;SDS011;8520;50.102;20.010;2023-11-19T02:12:15;34.10;;;31.60;;
16804;SDS011;8520;50.102;20.010;2023-11-19T02:14:43;33.50;;;31.00;;
16804;SDS011;8520;50.102;20.010;2023-11-19T02:17:24;33.60;;;31.10;;
16804;SDS011;8520;50.102;20.010;2023-11-19T02:19:52;34.63;;;32.17;;
16804;SDS011;8520;50.102;20.010;2023-11-19T02:22:22;35.50;;;32.90;;
16804;SDS011;8520;50.102;20.010;2023-11-19T02:24:51;35.47;;;32.97;;
16804;SDS011;8520;50.102;20.010;2023-11-19T02:27:20;36.50;;;33.87;;
16804;SDS011;8520;50.102;20.010;2023-11-19T02:29:52;35.33;;;32.83;;
16804;SDS011;8520;50.102;20.010;2023-11-19T02:32:20;36.67;;;34.10;;
16804;SDS011;8520;50.102;20.010;2023-11-19T02:34:48;37.17;;;34.37;;
16804;SDS011;8520;50.102;20.010;2023-11-19T02:37:15;36.43;;;33.83;;
16804;SDS011;8520;50.102;20.010;2023-11-19T02:39:45;37.97;;;35.17;;
16804;SDS011;8520;50.102;20.010;2023-11-19T02:42:14;37.07;;;34.37;;
16804;SDS011;8520;50.102;20.010;2023-11-19T02:44:43;37.27;;;34.57;;
16804;SDS011;8520;50.102;20.010;2023-11-19T02:47:12;37.87;;;34.93;;
16804;SDS011;8520;50.102;20.010;2023-11-19T02:49:40;35.83;;;33.20;;
16804;SDS011;8520;50.102;20.010;2023-11-19T02:52:11;36.83;;;34.23;;
16804;SDS011;8520;50.102;20.010;2023-11-19T02:54:41;38.60;;;35.67;;
16804;SDS011;8520;50.102;20.010;2023-11-19T02:57:09;37.00;;;34.37;;
16804;SDS011;8520;50.102;20.010;2023-11-19T02:59:48;36.00;;;33.40;;
16804;SDS011;8520;50.102;20.010;2023-11-19T03:02:17;35.87;;;33.27;;
16804;SDS011;8520;50.102;20.010;2023-11-19T03:04:45;37.23;;;34.63;;
16804;SDS011;8520;50.102;20.010;2023-11-19T03:07:13;39.03;;;36.10;;
16804;SDS011;8520;50.102;20.010;2023-11-19T03:09:41;40.27;;;37.37;;
16804;SDS011;8520;50.102;20.010;2023-11-19T03:12:10;41.67;;;38.63;;
16804;SDS011;8520;50.102;20.010;2023-11-19T03:14:38;43.00;;;39.70;;
16804;SDS011;8520;50.102;20.010;2023-11-19T03:17:06;41.97;;;38.97;;
16804;SDS011;8520;50.102;20.010;2023-11-19T03:19:37;43.47;;;40.30;;
16804;SDS011;8520;50.102;20.010;2023-11-19T03:22:05;44.30;;;41.10;;
16804;SDS011;8520;50.102;20.010;2023-11-19T03:24:34;44.60;;;41.30;;
16804;SDS011;8520;50.102;20.010;2023-11-19T03:27:02;43.67;;;40.43;;
16804;SDS011;8520;50.102;20.010;2023-11-19T03:29:30;45.20;;;42.00;;
16804;SDS011;8520;50.102;20.010;2023-11-19T03:31:58;44.57;;;41.37;;
16804;SDS011;8520;50.102;20.010;2023-11-19T03:34:26;44.50;;;41.20;;
16804;SDS011;8520;50.102;20.010;2023-11-19T03:36:55;44.47;;;41.37;;
16804;SDS011;8520;50.102;20.010;2023-11-19T03:39:23;46.77;;;43.40;;
16804;SDS011;8520;50.102;20.010;2023-11-19T03:41:53;46.17;;;42.77;;
16804;SDS011;8520;50.102;20.010;2023-11-19T03:44:21;47.30;;;43.90;;
16804;SDS011;8520;50.102;20.010;2023-11-19T03:46:50;47.97;;;44.47;;
16804;SDS011;8520;50.102;20.010;2023-11-19T03:49:18;48.53;;;44.93;;
16804;SDS011;8520;50.102;20.010;2023-11-19T03:51:45;49.40;;;45.80;;
16804;SDS011;8520;50.102;20.010;2023-11-19T03:54:15;50.60;;;46.77;;
16804;SDS011;8520;50.102;20.010;2023-11-19T03:56:43;50.47;;;46.83;;
16804;SDS011;8520;50.102;20.010;2023-11-19T03:59:11;51.90;;;47.97;;
16804;SDS011;8520;50.102;20.010;2023-11-19T04:01:39;52.50;;;48.40;;
16804;SDS011;8520;50.102;20.010;2023-11-19T04:04:07;52.13;;;48.43;;
16804;SDS011;8520;50.102;20.010;2023-11-19T04:06:35;52.77;;;48.93;;
16804;SDS011;8520;50.102;20.010;2023-11-19T04:09:02;54.23;;;50.13;;
16804;SDS011;8520;50.102;20.010;2023-11-19T04:11:31;54.60;;;50.47;;
16804;SDS011;8520;50.102;20.010;2023-11-19T04:14:00;54.47;;;50.37;;
16804;SDS011;8520;50.102;20.010;2023-11-19T04:16:27;56.37;;;52.17;;
16804;SDS011;8520;50.102;20.010;2023-11-19T04:18:57;56.97;;;52.80;;
16804;SDS011;8520;50.102;20.010;2023-11-19T04:21:25;57.67;;;53.37;;
16804;SDS011;8520;50.102;20.010;2023-11-19T04:23:53;58.30;;;53.67;;
16804;SDS011;8520;50.102;20.010;2023-11-19T04:26:21;60.27;;;55.67;;
16804;SDS011;8520;50.102;20.010;2023-11-19T04:28:50;60.40;;;55.67;;
16804;SDS011;8520;50.102;20.010;2023-11-19T04:31:19;60.20;;;55.63;;
16804;SDS011;8520;50.102;20.010;2023-11-19T04:33:47;58.07;;;53.87;;
16804;SDS011;8520;50.102;20.010;2023-11-19T04:36:18;61.43;;;56.70;;
16804;SDS011;8520;50.102;20.010;2023-11-19T04:38:46;61.20;;;56.60;;
16804;SDS011;8520;50.102;20.010;2023-11-19T04:41:14;61.80;;;57.20;;
16804;SDS011;8520;50.102;20.010;2023-11-19T04:43:42;65.70;;;60.53;;
16804;SDS011;8520;50.102;20.010;2023-11-19T04:46:11;64.40;;;59.40;;
16804;SDS011;8520;50.102;20.010;2023-11-19T04:48:39;64.60;;;59.57;;
16804;SDS011;8520;50.102;20.010;2023-11-19T04:51:08;65.03;;;60.03;;
16804;SDS011;8520;50.102;20.010;2023-11-19T04:53:36;65.07;;;59.87;;
16804;SDS011;8520;50.102;20.010;2023-11-19T04:56:07;66.40;;;61.03;;
16804;SDS011;8520;50.102;20.010;2023-11-19T04:58:35;65.83;;;60.67;;
16804;SDS011;8520;50.102;20.010;2023-11-19T05:01:04;67.33;;;62.00;;
16804;SDS011;8520;50.102;20.010;2023-11-19T05:03:33;66.60;;;61.20;;
16804;SDS011;8520;50.102;20.010;2023-11-19T05:06:03;66.23;;;60.87;;
16804;SDS011;8520;50.102;20.010;2023-11-19T05:08:31;66.43;;;61.23;;
16804;SDS011;8520;50.102;20.010;2023-11-19T05:10:58;65.97;;;60.77;;
16804;SDS011;8520;50.102;20.010;2023-11-19T05:13:26;67.57;;;62.00;;
16804;SDS011;8520;50.102;20.010;2023-11-19T05:15:54;66.67;;;61.47;;
16804;SDS011;8520;50.102;20.010;2023-11-19T05:18:22;66.83;;;61.40;;
16804;SDS011;8520;50.102;20.010;2023-11-19T05:20:51;68.53;;;62.87;;
16804;SDS011;8520;50.102;20.010;2023-11-19T05:23:19;67.00;;;61.50;;
16804;SDS011;8520;50.102;20.010;2023-11-19T05:25:48;65.53;;;60.23;;
16804;SDS011;8520;50.102;20.010;2023-11-19T05:28:15;65.80;;;60.30;;
16804;SDS011;8520;50.102;20.010;2023-11-19T05:30:43;66.17;;;60.70;;
16804;SDS011;8520;50.102;20.010;2023-11-19T05:33:11;67.37;;;61.80;;
16804;SDS011;8520;50.102;20.010;2023-11-19T05:35:39;66.60;;;60.97;;
16804;SDS011;8520;50.102;20.010;2023-11-19T05:38:08;66.50;;;60.97;;
16804;SDS011;8520;50.102;20.010;2023-11-19T05:40:37;65.43;;;60.03;;
16804;SDS011;8520;50.102;20.010;2023-11-19T05:43:06;67.33;;;61.70;;
16804;SDS011;8520;50.102;20.010;2023-11-19T05:45:33;65.83;;;60.50;;
16804;SDS011;8520;50.102;20.010;2023-11-19T05:48:01;65.33;;;59.93;;
16804;SDS011;8520;50.102;20.010;2023-11-19T05:50:31;65.13;;;59.93;;
16804;SDS011;8520;50.102;20.010;2023-11-19T05:52:58;64.53;;;59.33;;
16804;SDS011;8520;50.102;20.010;2023-11-19T05:55:29;64.90;;;59.60;;
16804;SDS011;8520;50.102;20.010;2023-11-19T05:57:57;64.13;;;59.13;;
16804;SDS011;8520;50.102;20.010;2023-11-19T06:00:25;66.67;;;61.43;;
16804;SDS011;8520;50.102;20.010;2023-11-19T06:02:54;64.47;;;59.23;;
16804;SDS011;8520;50.102;20.010;2023-11-19T06:05:22;64.77;;;59.60;;
16804;SDS011;8520;50.102;20.010;2023-11-19T06:07:50;66.47;;;60.90;;
16804;SDS011;8520;50.102;20.010;2023-11-19T06:10:17;63.17;;;58.10;;
16804;SDS011;8520;50.102;20.010;2023-11-19T06:12:48;62.40;;;57.57;;
16804;SDS011;8520;50.102;20.010;2023-11-19T06:15:22;62.20;;;57.20;;
16804;SDS011;8520;50.102;20.010;2023-11-19T06:17:50;62.10;;;57.17;;
16804;SDS011;8520;50.102;20.010;2023-11-19T06:20:18;62.77;;;57.90;;
16804;SDS011;8520;50.102;20.010;2023-11-19T06:22:47;62.30;;;57.40;;
16804;SDS011;8520;50.102;20.010;2023-11-19T06:25:15;59.90;;;55.40;;
16804;SDS011;8520;50.102;20.010;2023-11-19T06:27:43;63.23;;;58.33;;
16804;SDS011;8520;50.102;20.010;2023-11-19T06:30:12;63.33;;;58.30;;
16804;SDS011;8520;50.102;20.010;2023-11-19T06:32:40;63.67;;;58.83;;
16804;SDS011;8520;50.102;20.010;2023-11-19T06:35:08;64.53;;;59.60;;
16804;SDS011;8520;50.102;20.010;2023-11-19T06:37:38;63.43;;;58.60;;
16804;SDS011;8520;50.102;20.010;2023-11-19T06:40:06;62.30;;;57.73;;
16804;SDS011;8520;50.102;20.010;2023-11-19T06:42:35;60.67;;;55.97;;
16804;SDS011;8520;50.102;20.010;2023-11-19T06:45:03;62.97;;;58.13;;
16804;SDS011;8520;50.102;20.010;2023-11-19T06:47:34;61.83;;;57.03;;
16804;SDS011;8520;50.102;20.010;2023-11-19T06:50:02;61.47;;;56.93;;
16804;SDS011;8520;50.102;20.010;2023-11-19T06:52:32;62.10;;;57.40;;
16804;SDS011;8520;50.102;20.010;2023-11-19T06:55:00;60.70;;;56.20;;
16804;SDS011;8520;50.102;20.010;2023-11-19T06:57:31;62.13;;;57.33;;
16804;SDS011;8520;50.102;20.010;2023-11-19T06:59:59;61.47;;;56.70;;
16804;SDS011;8520;50.102;20.010;2023-11-19T07:02:27;61.90;;;56.87;;
16804;SDS011;8520;50.102;20.010;2023-11-19T07:04:58;62.90;;;58.13;;
16804;SDS011;8520;50.102;20.010;2023-11-19T07:07:26;61.20;;;56.40;;
16804;SDS011;8520;50.102;20.010;2023-11-19T07:09:54;61.40;;;56.67;;
16804;SDS011;8520;50.102;20.010;2023-11-19T07:12:22;60.67;;;56.03;;
16804;SDS011;8520;50.102;20.010;2023-11-19T07:14:50;60.40;;;55.57;;
16804;SDS011;8520;50.102;20.010;2023-11-19T07:17:18;59.47;;;54.67;;
16804;SDS011;8520;50.102;20.010;2023-11-19T07:19:46;59.70;;;55.13;;
16804;SDS011;8520;50.102;20.010;2023-11-19T07:22:16;59.23;;;54.73;;
16804;SDS011;8520;50.102;20.010;2023-11-19T07:24:44;58.30;;;53.80;;
16804;SDS011;8520;50.102;20.010;2023-11-19T07:27:12;57.80;;;53.30;;
16804;SDS011;8520;50.102;20.010;2023-11-19T07:29:40;58.00;;;53.57;;
16804;SDS011;8520;50.102;20.010;2023-11-19T07:32:08;56.87;;;52.47;;
16804;SDS011;8520;50.102;20.010;2023-11-19T07:34:36;58.30;;;53.67;;
16804;SDS011;8520;50.102;20.010;2023-11-19T07:37:04;55.20;;;50.83;;
16804;SDS011;8520;50.102;20.010;2023-11-19T07:39:33;54.67;;;50.33;;
16804;SDS011;8520;50.102;20.010;2023-11-19T07:42:02;53.77;;;49.57;;
16804;SDS011;8520;50.102;20.010;2023-11-19T07:44:29;51.50;;;47.57;;
16804;SDS011;8520;50.102;20.010;2023-11-19T07:46:57;53.20;;;49.13;;
16804;SDS011;8520;50.102;20.010;2023-11-19T07:49:26;52.63;;;48.60;;
16804;SDS011;8520;50.102;20.010;2023-11-19T07:51:54;51.43;;;47.33;;
16804;SDS011;8520;50.102;20.010;2023-11-19T07:54:22;48.50;;;44.83;;
16804;SDS011;8520;50.102;20.010;2023-11-19T07:56:52;46.53;;;43.10;;
16804;SDS011;8520;50.102;20.010;2023-11-19T07:59:20;44.17;;;40.80;;
16804;SDS011;8520;50.102;20.010;2023-11-19T08:01:48;41.73;;;38.80;;
16804;SDS011;8520;50.102;20.010;2023-11-19T08:04:16;39.37;;;36.47;;
16804;SDS011;8520;50.102;20.010;2023-11-19T08:06:44;39.20;;;36.37;;
16804;SDS011;8520;50.102;20.010;2023-11-19T08:09:12;38.00;;;35.23;;
16804;SDS011;8520;50.102;20.010;2023-11-19T08:11:40;34.97;;;32.57;;
16804;SDS011;8520;50.102;20.010;2023-11-19T08:14:10;33.70;;;31.30;;
16804;SDS011;8520;50.102;20.010;2023-11-19T08:16:38;29.53;;;27.53;;
16804;SDS011;8520;50.102;20.010;2023-11-19T08:19:06;28.87;;;26.67;;
16804;SDS011;8520;50.102;20.010;2023-11-19T08:21:35;26.27;;;24.47;;
16804;SDS011;8520;50.102;20.010;2023-11-19T08:24:03;25.17;;;23.47;;
16804;SDS011;8520;50.102;20.010;2023-11-19T08:26:31;23.90;;;22.23;;
16804;SDS011;8520;50.102;20.010;2023-11-19T08:28:59;23.40;;;21.80;;
16804;SDS011;8520;50.102;20.010;2023-11-19T08:31:28;23.77;;;22.10;;
16804;SDS011;8520;50.102;20.010;2023-11-19T08:33:56;23.77;;;22.17;;
16804;SDS011;8520;50.102;20.010;2023-11-19T08:36:24;22.60;;;21.03;;
16804;SDS011;8520;50.102;20.010;2023-11-19T08:38:52;21.97;;;20.53;;
16804;SDS011;8520;50.102;20.010;2023-11-19T08:41:20;20.97;;;19.50;;
16804;SDS011;8520;50.102;20.010;2023-11-19T08:43:48;19.93;;;18.63;;
16804;SDS011;8520;50.102;20.010;2023-11-19T08:46:16;20.23;;;18.83;;
16804;SDS011;8520;50.102;20.010;2023-11-19T08:48:46;18.87;;;17.67;;
16804;SDS011;8520;50.102;20.010;2023-11-19T08:51:14;19.27;;;17.97;;
16804;SDS011;8520;50.102;20.010;2023-11-19T08:53:42;18.90;;;17.70;;
16804;SDS011;8520;50.102;20.010;2023-11-19T08:56:09;19.03;;;17.73;;
16804;SDS011;8520;50.102;20.010;2023-11-19T08:58:37;18.33;;;17.13;;
16804;SDS011;8520;50.102;20.010;2023-11-19T09:01:05;18.50;;;17.30;;
16804;SDS011;8520;50.102;20.010;2023-11-19T09:03:33;19.07;;;17.77;;
16804;SDS011;8520;50.102;20.010;2023-11-19T09:06:03;17.97;;;16.77;;
16804;SDS011;8520;50.102;20.010;2023-11-19T09:08:31;17.93;;;16.73;;
16804;SDS011;8520;50.102;20.010;2023-11-19T09:10:59;18.60;;;17.37;;
16804;SDS011;8520;50.102;20.010;2023-11-19T09:13:27;18.23;;;17.03;;
16804;SDS011;8520;50.102;20.010;2023-11-19T09:15:55;18.13;;;16.93;;
16804;SDS011;8520;50.102;20.010;2023-11-19T09:18:25;18.00;;;16.80;;
16804;SDS011;8520;50.102;20.010;2023-11-19T09:20:53;17.83;;;16.63;;
16804;SDS011;8520;50.102;20.010;2023-11-19T09:23:23;18.33;;;17.03;;
16804;SDS011;8520;50.102;20.010;2023-11-19T09:25:51;18.37;;;17.07;;
16804;SDS011;8520;50.102;20.010;2023-11-19T09:28:19;18.13;;;16.83;;
16804;SDS011;8520;50.102;20.010;2023-11-19T09:30:48;22.33;;;20.60;;
16804;SDS011;8520;50.102;20.010;2023-11-19T09:33:16;20.47;;;18.87;;
16804;SDS011;8520;50.102;20.010;2023-11-19T09:35:44;18.20;;;16.97;;
16804;SDS011;8520;50.102;20.010;2023-11-19T09:38:12;17.70;;;16.50;;
16804;SDS011;8520;50.102;20.010;2023-11-19T09:40:41;17.00;;;15.90;;
16804;SDS011;8520;50.102;20.010;2023-11-19T09:43:09;17.10;;;15.97;;
16804;SDS011;8520;50.102;20.010;2023-11-19T09:45:40;17.07;;;15.83;;
16804;SDS011;8520;50.102;20.010;2023-11-19T09:48:13;16.37;;;15.27;;
16804;SDS011;8520;50.102;20.010;2023-11-19T09:50:41;16.57;;;15.47;;
16804;SDS011;8520;50.102;20.010;2023-11-19T09:53:09;17.10;;;15.90;;
16804;SDS011;8520;50.102;20.010;2023-11-19T09:55:37;15.77;;;14.67;;
16804;SDS011;8520;50.102;20.010;2023-11-19T09:58:06;15.93;;;14.73;;
16804;SDS011;8520;50.102;20.010;2023-11-19T10:00:35;15.13;;;14.13;;
16804;SDS011;8520;50.102;20.010;2023-11-19T10:03:02;14.93;;;13.93;;
16804;SDS011;8520;50.102;20.010;2023-11-19T10:05:32;35.70;;;32.00;;
16804;SDS011;8520;50.102;20.010;2023-11-19T10:08:01;16.17;;;14.97;;
16804;SDS011;8520;50.102;20.010;2023-11-19T10:10:29;16.17;;;15.07;;
16804;SDS011;8520;50.102;20.010;2023-11-19T10:12:57;14.70;;;13.80;;
16804;SDS011;8520;50.102;20.010;2023-11-19T10:15:28;15.63;;;14.53;;
16804;SDS011;8520;50.102;20.010;2023-11-19T10:18:00;14.60;;;13.60;;
16804;SDS011;8520;50.102;20.010;2023-11-19T10:20:28;14.13;;;13.03;;
16804;SDS011;8520;50.102;20.010;2023-11-19T10:22:56;14.60;;;13.63;;
16804;SDS011;8520;50.102;20.010;2023-11-19T10:25:25;14.80;;;13.80;;
16804;SDS011;8520;50.102;20.010;2023-11-19T10:27:53;13.60;;;12.70;;
16804;SDS011;8520;50.102;20.010;2023-11-19T10:30:22;14.13;;;13.20;;
16804;SDS011;8520;50.102;20.010;2023-11-19T10:33:04;15.10;;;14.00;;
16804;SDS011;8520;50.102;20.010;2023-11-19T10:35:33;14.90;;;13.87;;
16804;SDS011;8520;50.102;20.010;2023-11-19T10:38:01;14.70;;;13.70;;
16804;SDS011;8520;50.102;20.010;2023-11-19T10:40:40;17.30;;;15.80;;
16804;SDS011;8520;50.102;20.010;2023-11-19T10:43:08;20.57;;;18.87;;
16804;SDS011;8520;50.102;20.010;2023-11-19T10:45:36;14.90;;;13.80;;
16804;SDS011;8520;50.102;20.010;2023-11-19T10:48:06;15.20;;;14.20;;
16804;SDS011;8520;50.102;20.010;2023-11-19T10:50:35;15.87;;;14.60;;
16804;SDS011;8520;50.102;20.010;2023-11-19T10:53:03;14.40;;;13.40;;
16804;SDS011;8520;50.102;20.010;2023-11-19T10:55:31;15.37;;;14.10;;
16804;SDS011;8520;50.102;20.010;2023-11-19T10:58:02;14.47;;;13.47;;
16804;SDS011;8520;50.102;20.010;2023-11-19T11:00:30;14.67;;;13.60;;
16804;SDS011;8520;50.102;20.010;2023-11-19T11:03:01;15.30;;;14.10;;
16804;SDS011;8520;50.102;20.010;2023-11-19T11:05:32;15.43;;;14.23;;
16804;SDS011;8520;50.102;20.010;2023-11-19T11:08:01;15.87;;;14.60;;
16804;SDS011;8520;50.102;20.010;2023-11-19T11:10:30;14.93;;;13.83;;
16804;SDS011;8520;50.102;20.010;2023-11-19T11:13:02;15.47;;;14.37;;
16804;SDS011;8520;50.102;20.010;2023-11-19T11:15:30;14.83;;;13.73;;
16804;SDS011;8520;50.102;20.010;2023-11-19T11:17:59;15.20;;;13.83;;
16804;SDS011;8520;50.102;20.010;2023-11-19T11:20:28;15.67;;;14.43;;
16804;SDS011;8520;50.102;20.010;2023-11-19T11:23:06;14.23;;;13.30;;
16804;SDS011;8520;50.102;20.010;2023-11-19T11:25:40;15.50;;;14.40;;
16804;SDS011;8520;50.102;20.010;2023-11-19T11:28:16;13.67;;;12.67;;
16804;SDS011;8520;50.102;20.010;2023-11-19T11:30:48;14.20;;;13.20;;
16804;SDS011;8520;50.102;20.010;2023-11-19T11:33:23;12.77;;;11.87;;
16804;SDS011;8520;50.102;20.010;2023-11-19T11:35:55;13.00;;;12.03;;
16804;SDS011;8520;50.102;20.010;2023-11-19T11:38:26;12.20;;;11.37;;
16804;SDS011;8520;50.102;20.010;2023-11-19T11:43:43;13.10;;;12.20;;
16804;SDS011;8520;50.102;20.010;2023-11-19T11:48:54;13.90;;;12.90;;
16804;SDS011;8520;50.102;20.010;2023-11-19T11:51:32;14.30;;;13.20;;
16804;SDS011;8520;50.102;20.010;2023-11-19T11:54:27;14.43;;;13.43;;
16804;SDS011;8520;50.102;20.010;2023-11-19T11:57:04;16.03;;;14.83;;
16804;SDS011;8520;50.102;20.010;2023-11-19T11:59:37;15.20;;;14.10;;
16804;SDS011;8520;50.102;20.010;2023-11-19T12:02:11;15.23;;;14.17;;
16804;SDS011;8520;50.102;20.010;2023-11-19T12:04:39;15.60;;;14.40;;
16804;SDS011;8520;50.102;20.010;2023-11-19T12:07:09;16.27;;;15.07;;
16804;SDS011;8520;50.102;20.010;2023-11-19T12:09:41;15.73;;;14.63;;
16804;SDS011;8520;50.102;20.010;2023-11-19T12:12:27;17.93;;;16.63;;
16804;SDS011;8520;50.102;20.010;2023-11-19T12:15:03;16.70;;;15.40;;
16804;SDS011;8520;50.102;20.010;2023-11-19T12:17:43;15.63;;;14.53;;
16804;SDS011;8520;50.102;20.010;2023-11-19T12:20:17;15.20;;;14.10;;
16804;SDS011;8520;50.102;20.010;2023-11-19T12:23:00;15.60;;;14.60;;
16804;SDS011;8520;50.102;20.010;2023-11-19T12:25:35;15.93;;;14.83;;
16804;SDS011;8520;50.102;20.010;2023-11-19T12:28:03;14.20;;;13.30;;
16804;SDS011;8520;50.102;20.010;2023-11-19T12:30:32;14.57;;;13.57;;
16804;SDS011;8520;50.102;20.010;2023-11-19T12:33:07;14.67;;;13.77;;
16804;SDS011;8520;50.102;20.010;2023-11-19T12:35:38;15.57;;;14.63;;
16804;SDS011;8520;50.102;20.010;2023-11-19T12:38:06;15.83;;;14.93;;
16804;SDS011;8520;50.102;20.010;2023-11-19T12:40:36;16.43;;;15.43;;
16804;SDS011;8520;50.102;20.010;2023-11-19T12:43:04;17.00;;;16.00;;
16804;SDS011;8520;50.102;20.010;2023-11-19T12:45:35;17.00;;;16.10;;
16804;SDS011;8520;50.102;20.010;2023-11-19T12:48:05;17.63;;;16.73;;
16804;SDS011;8520;50.102;20.010;2023-11-19T12:50:52;18.87;;;17.77;;
16804;SDS011;8520;50.102;20.010;2023-11-19T12:53:20;19.50;;;18.40;;
16804;SDS011;8520;50.102;20.010;2023-11-19T12:55:50;20.63;;;19.43;;
16804;SDS011;8520;50.102;20.010;2023-11-19T12:58:30;21.53;;;20.33;;
16804;SDS011;8520;50.102;20.010;2023-11-19T13:01:01;21.60;;;20.40;;
16804;SDS011;8520;50.102;20.010;2023-11-19T13:03:30;23.00;;;21.70;;
16804;SDS011;8520;50.102;20.010;2023-11-19T13:06:01;23.67;;;22.47;;
16804;SDS011;8520;50.102;20.010;2023-11-19T13:08:35;24.83;;;23.43;;
16804;SDS011;8520;50.102;20.010;2023-11-19T13:11:05;25.10;;;23.70;;
16804;SDS011;8520;50.102;20.010;2023-11-19T13:16:17;27.37;;;25.87;;
16804;SDS011;8520;50.102;20.010;2023-11-19T13:18:46;27.13;;;25.63;;
16804;SDS011;8520;50.102;20.010;2023-11-19T13:21:14;26.97;;;25.47;;
16804;SDS011;8520;50.102;20.010;2023-11-19T13:23:42;28.13;;;26.53;;
16804;SDS011;8520;50.102;20.010;2023-11-19T13:26:11;27.37;;;25.80;;
16804;SDS011;8520;50.102;20.010;2023-11-19T13:28:39;29.17;;;27.53;;
16804;SDS011;8520;50.102;20.010;2023-11-19T13:31:07;28.53;;;26.93;;
16804;SDS011;8520;50.102;20.010;2023-11-19T13:33:37;28.37;;;26.87;;
16804;SDS011;8520;50.102;20.010;2023-11-19T13:36:05;28.77;;;27.17;;
16804;SDS011;8520;50.102;20.010;2023-11-19T13:38:34;30.50;;;28.80;;
16804;SDS011;8520;50.102;20.010;2023-11-19T13:41:03;31.40;;;29.73;;
16804;SDS011;8520;50.102;20.010;2023-11-19T13:43:33;31.90;;;30.20;;
16804;SDS011;8520;50.102;20.010;2023-11-19T13:46:01;32.07;;;30.37;;
16804;SDS011;8520;50.102;20.010;2023-11-19T13:48:29;34.53;;;32.67;;
16804;SDS011;8520;50.102;20.010;2023-11-19T13:50:57;34.60;;;32.80;;
16804;SDS011;8520;50.102;20.010;2023-11-19T13:53:26;35.37;;;33.47;;
16804;SDS011;8520;50.102;20.010;2023-11-19T13:55:54;37.47;;;35.47;;
16804;SDS011;8520;50.102;20.010;2023-11-19T13:58:22;37.83;;;35.83;;
16804;SDS011;8520;50.102;20.010;2023-11-19T14:00:51;36.77;;;34.87;;
16804;SDS011;8520;50.102;20.010;2023-11-19T14:03:20;38.03;;;36.03;;
16804;SDS011;8520;50.102;20.010;2023-11-19T14:05:48;39.40;;;37.30;;
16804;SDS011;8520;50.102;20.010;2023-11-19T14:08:18;38.70;;;36.80;;
16804;SDS011;8520;50.102;20.010;2023-11-19T14:10:51;40.43;;;38.43;;
16804;SDS011;8520;50.102;20.010;2023-11-19T14:13:22;39.77;;;37.57;;
16804;SDS011;8520;50.102;20.010;2023-11-19T14:15:52;45.97;;;43.17;;
16804;SDS011;8520;50.102;20.010;2023-11-19T14:18:20;43.17;;;40.77;;
16804;SDS011;8520;50.102;20.010;2023-11-19T14:20:47;43.00;;;40.70;;
16804;SDS011;8520;50.102;20.010;2023-11-19T14:23:15;43.23;;;41.00;;
16804;SDS011;8520;50.102;20.010;2023-11-19T14:25:43;44.80;;;42.40;;
16804;SDS011;8520;50.102;20.010;2023-11-19T14:28:11;44.53;;;42.27;;
16804;SDS011;8520;50.102;20.010;2023-11-19T14:30:39;44.73;;;42.43;;
16804;SDS011;8520;50.102;20.010;2023-11-19T14:33:09;45.10;;;42.77;;
16804;SDS011;8520;50.102;20.010;2023-11-19T14:35:37;44.80;;;42.50;;
16804;SDS011;8520;50.102;20.010;2023-11-19T14:38:05;44.97;;;42.67;;
16804;SDS011;8520;50.102;20.010;2023-11-19T14:40:36;45.80;;;43.37;;